createdAt,value
2019-04-30T00:00:45.396Z,97.10
2019-04-30T00:01:59.565Z,97.40
2019-04-30T00:03:15.970Z,97.90
2019-04-30T00:04:29.918Z,97.90
2019-04-30T00:05:35.168Z,98.30
2019-04-30T00:06:39.653Z,98.40
2019-04-30T00:07:46.101Z,98.70
2019-04-30T00:08:50.288Z,98.60
2019-04-30T00:09:57.537Z,99.10
2019-04-30T00:11:00.704Z,99.30
2019-04-30T00:12:05.662Z,99.20
2019-04-30T00:13:10.472Z,99.30
2019-04-30T00:14:16.523Z,99.60
2019-04-30T00:15:20.892Z,99.60
2019-04-30T00:16:25.369Z,99.40
2019-04-30T00:17:29.725Z,99.30
2019-04-30T00:18:35.897Z,99.10
2019-04-30T00:19:40.466Z,99.40
2019-04-30T00:20:46.970Z,99.60
2019-04-30T00:21:57.050Z,99.90
2019-04-30T00:22:56.969Z,99.90
2019-04-30T00:24:06.249Z,99.80
2019-04-30T00:25:07.795Z,99.90
2019-04-30T00:26:12.285Z,99.90
2019-04-30T00:27:20.920Z,99.90
2019-04-30T00:28:22.885Z,99.90
2019-04-30T00:29:30.843Z,99.90
2019-04-30T00:30:34.923Z,99.90
2019-04-30T00:31:39.666Z,99.90
2019-04-30T00:32:45.590Z,99.90
2019-04-30T00:33:52.707Z,99.90
2019-04-30T00:34:57.726Z,99.90
2019-04-30T00:36:02.165Z,99.90
2019-04-30T00:37:13.651Z,99.90
2019-04-30T00:38:12.893Z,99.90
2019-04-30T00:39:17.362Z,99.90
2019-04-30T00:40:26.015Z,99.90
2019-04-30T00:41:30.168Z,99.90
2019-04-30T00:42:35.655Z,99.90
2019-04-30T00:43:46.427Z,99.90
2019-04-30T00:44:45.899Z,99.90
2019-04-30T00:45:50.340Z,99.90
2019-04-30T00:46:55.890Z,99.90
2019-04-30T00:48:00.465Z,99.90
2019-04-30T00:49:11.289Z,99.90
2019-04-30T00:50:11.476Z,99.90
2019-04-30T00:51:21.163Z,99.90
2019-04-30T00:52:22.011Z,99.90
2019-04-30T00:53:26.401Z,99.90
2019-04-30T00:54:31.032Z,99.90
2019-04-30T00:55:40.215Z,99.90
2019-04-30T00:56:41.547Z,99.90
2019-04-30T00:57:47.464Z,99.90
2019-04-30T00:58:52.247Z,99.90
2019-04-30T00:59:57.022Z,99.90
2019-04-30T01:01:16.182Z,99.90
2019-04-30T01:02:33.508Z,99.90
2019-04-30T01:03:39.409Z,99.90
2019-04-30T01:04:47.119Z,99.90
2019-04-30T01:05:51.623Z,99.90
2019-04-30T01:07:00.221Z,99.90
2019-04-30T01:08:02.203Z,99.90
2019-04-30T01:09:08.702Z,99.90
2019-04-30T01:10:15.183Z,99.90
2019-04-30T01:11:19.703Z,99.90
2019-04-30T01:12:28.792Z,99.90
2019-04-30T01:13:30.283Z,99.90
2019-04-30T01:14:34.664Z,99.90
2019-04-30T01:15:39.108Z,99.90
2019-04-30T01:16:43.463Z,99.90
2019-04-30T01:17:50.920Z,99.90
2019-04-30T01:18:53.911Z,99.90
2019-04-30T01:19:59.215Z,99.90
2019-04-30T01:21:07.877Z,99.90
2019-04-30T01:22:09.933Z,99.90
2019-04-30T01:23:15.899Z,99.90
2019-04-30T01:24:23.499Z,99.90
2019-04-30T01:25:26.753Z,99.90
2019-04-30T01:26:33.632Z,99.90
2019-04-30T01:27:39.442Z,99.90
2019-04-30T01:28:44.473Z,99.90
2019-04-30T01:29:48.964Z,99.90
2019-04-30T01:30:53.985Z,99.90
2019-04-30T01:31:59.557Z,99.90
2019-04-30T01:33:04.033Z,99.90
2019-04-30T01:34:10.369Z,99.90
2019-04-30T01:35:14.703Z,99.90
2019-04-30T01:36:19.342Z,99.90
2019-04-30T01:37:28.629Z,99.90
2019-04-30T01:38:29.870Z,99.90
2019-04-30T01:39:34.260Z,99.90
2019-04-30T01:40:42.913Z,99.90
2019-04-30T01:41:48.824Z,99.90
2019-04-30T01:42:53.549Z,99.90
2019-04-30T01:43:58.475Z,99.90
2019-04-30T01:45:03.152Z,99.90
2019-04-30T01:46:12.142Z,99.90
2019-04-30T01:47:13.515Z,99.90
2019-04-30T01:48:19.406Z,99.90
2019-04-30T01:49:25.718Z,99.90
2019-04-30T01:50:33.712Z,99.90
2019-04-30T01:51:36.006Z,99.90
2019-04-30T01:52:52.643Z,99.90
2019-04-30T01:53:56.994Z,99.90
2019-04-30T01:55:01.400Z,99.90
2019-04-30T01:56:24.910Z,99.90
2019-04-30T01:58:00.758Z,99.90
2019-04-30T01:59:13.115Z,99.90
2019-04-30T02:00:29.346Z,99.90
2019-04-30T02:01:34.345Z,99.90
2019-04-30T02:02:40.071Z,99.90
2019-04-30T02:03:44.381Z,99.90
2019-04-30T02:04:49.241Z,99.90
2019-04-30T02:05:53.804Z,99.90
2019-04-30T02:06:59.219Z,99.90
2019-04-30T02:08:03.671Z,99.90
2019-04-30T02:09:09.144Z,99.90
2019-04-30T02:10:13.886Z,99.90
2019-04-30T02:11:18.958Z,99.90
2019-04-30T02:12:23.581Z,99.90
2019-04-30T02:13:29.470Z,99.90
2019-04-30T02:14:33.935Z,99.90
2019-04-30T02:15:39.034Z,99.90
2019-04-30T02:16:43.619Z,99.90
2019-04-30T02:17:50.241Z,99.90
2019-04-30T02:18:54.125Z,99.90
2019-04-30T02:19:59.278Z,99.90
2019-04-30T02:21:03.928Z,99.90
2019-04-30T02:22:09.512Z,99.90
2019-04-30T02:23:14.084Z,99.90
2019-04-30T02:24:19.182Z,99.90
2019-04-30T02:25:23.911Z,99.90
2019-04-30T02:26:28.662Z,99.90
2019-04-30T02:27:33.121Z,99.90
2019-04-30T02:28:39.274Z,99.90
2019-04-30T02:29:43.711Z,99.90
2019-04-30T02:30:50.518Z,99.90
2019-04-30T02:31:54.069Z,99.90
2019-04-30T02:33:00.606Z,99.90
2019-04-30T02:34:11.468Z,99.90
2019-04-30T02:35:33.982Z,99.90
2019-04-30T02:36:49.953Z,99.90
2019-04-30T02:38:13.102Z,99.90
2019-04-30T02:39:20.167Z,99.90
2019-04-30T02:40:23.611Z,99.90
2019-04-30T02:41:29.464Z,99.90
2019-04-30T02:42:34.788Z,99.90
2019-04-30T02:43:40.660Z,99.90
2019-04-30T02:44:45.696Z,99.90
2019-04-30T02:45:51.396Z,99.90
2019-04-30T02:47:00.349Z,99.90
2019-04-30T02:48:05.563Z,99.90
2019-04-30T02:49:11.317Z,99.90
2019-04-30T02:50:19.811Z,99.90
2019-04-30T02:51:24.983Z,99.90
2019-04-30T02:52:31.620Z,99.90
2019-04-30T02:54:24.146Z,99.90
2019-04-30T02:55:42.543Z,99.90
2019-04-30T02:56:51.359Z,99.90
2019-04-30T02:57:55.745Z,99.90
2019-04-30T02:59:03.366Z,99.90
2019-04-30T03:00:19.969Z,99.90
2019-04-30T03:01:22.834Z,99.90
2019-04-30T03:02:29.196Z,99.90
2019-04-30T03:03:33.740Z,99.90
2019-04-30T03:04:39.527Z,99.90
2019-04-30T03:05:44.100Z,99.90
2019-04-30T03:06:50.212Z,99.90
2019-04-30T03:07:54.527Z,99.90
2019-04-30T03:09:00.984Z,99.90
2019-04-30T03:10:05.583Z,99.90
2019-04-30T03:11:10.067Z,99.90
2019-04-30T03:12:14.422Z,99.90
2019-04-30T03:13:20.153Z,99.90
2019-04-30T03:14:24.728Z,99.90
2019-04-30T03:15:29.875Z,99.90
2019-04-30T03:17:00.222Z,99.90
2019-04-30T03:18:23.031Z,99.90
2019-04-30T03:19:36.155Z,99.90
2019-04-30T03:20:46.108Z,99.90
2019-04-30T03:21:54.788Z,99.90
2019-04-30T03:23:02.343Z,99.90
2019-04-30T03:24:05.213Z,99.90
2019-04-30T03:25:09.638Z,99.90
2019-04-30T03:26:13.981Z,99.90
2019-04-30T03:27:21.088Z,99.90
2019-04-30T03:28:24.525Z,99.90
2019-04-30T03:29:30.352Z,99.90
2019-04-30T03:30:35.008Z,99.90
2019-04-30T03:31:44.148Z,99.90
2019-04-30T03:32:55.168Z,99.90
2019-04-30T03:33:52.574Z,99.90
2019-04-30T03:34:57.094Z,99.90
2019-04-30T03:36:02.490Z,99.90
2019-04-30T03:37:09.727Z,99.90
2019-04-30T03:38:13.300Z,99.90
2019-04-30T03:39:19.799Z,99.90
2019-04-30T03:40:23.724Z,99.90
2019-04-30T03:41:33.066Z,99.90
2019-04-30T03:42:34.105Z,99.90
2019-04-30T03:43:40.068Z,99.90
2019-04-30T03:44:44.457Z,99.90
2019-04-30T03:45:49.960Z,99.90
2019-04-30T03:46:54.618Z,99.90
2019-04-30T03:48:00.329Z,99.90
2019-04-30T03:49:04.930Z,99.90
2019-04-30T03:50:09.442Z,99.90
2019-04-30T03:51:13.786Z,99.90
2019-04-30T03:52:19.712Z,99.90
2019-04-30T03:53:24.392Z,99.90
2019-04-30T03:54:29.245Z,99.90
2019-04-30T03:55:33.923Z,99.90
2019-04-30T03:56:39.581Z,99.90
2019-04-30T03:57:44.313Z,99.90
2019-04-30T03:58:50.346Z,99.90
2019-04-30T03:59:54.764Z,99.90
2019-04-30T04:01:09.914Z,99.90
2019-04-30T04:02:22.554Z,99.90
2019-04-30T04:03:29.198Z,99.90
2019-04-30T04:04:55.715Z,99.90
2019-04-30T04:06:22.643Z,99.90
2019-04-30T04:07:55.513Z,99.90
2019-04-30T04:09:06.261Z,99.90
2019-04-30T04:10:29.941Z,99.90
2019-04-30T04:11:39.686Z,99.90
2019-04-30T04:12:44.150Z,99.90
2019-04-30T04:13:49.577Z,99.90
2019-04-30T04:14:54.290Z,99.90
2019-04-30T04:15:59.915Z,99.90
2019-04-30T04:17:04.645Z,99.90
2019-04-30T04:18:10.615Z,99.90
2019-04-30T04:19:15.268Z,99.90
2019-04-30T04:20:20.228Z,99.90
2019-04-30T04:21:24.896Z,99.90
2019-04-30T04:22:30.607Z,99.90
2019-04-30T04:23:35.359Z,99.90
2019-04-30T04:24:40.285Z,99.90
2019-04-30T04:25:44.729Z,99.90
2019-04-30T04:26:50.255Z,99.90
2019-04-30T04:27:54.961Z,99.90
2019-04-30T04:28:59.597Z,99.90
2019-04-30T04:30:04.645Z,99.90
2019-04-30T04:31:09.551Z,99.90
2019-04-30T04:32:14.159Z,99.90
2019-04-30T04:33:19.915Z,99.90
2019-04-30T04:34:24.577Z,99.90
2019-04-30T04:35:29.872Z,99.90
2019-04-30T04:36:34.598Z,99.90
2019-04-30T04:37:39.538Z,99.90
2019-04-30T04:38:44.331Z,99.90
2019-04-30T04:39:50.293Z,99.90
2019-04-30T04:40:54.911Z,99.90
2019-04-30T04:42:00.006Z,99.90
2019-04-30T04:43:04.796Z,99.90
2019-04-30T04:44:09.996Z,99.90
2019-04-30T04:45:15.365Z,99.90
2019-04-30T04:46:20.547Z,99.90
2019-04-30T04:47:25.062Z,99.90
2019-04-30T04:48:29.900Z,99.90
2019-04-30T04:49:34.570Z,99.90
2019-04-30T04:50:40.026Z,99.90
2019-04-30T04:51:44.719Z,99.90
2019-04-30T04:52:49.546Z,99.90
2019-04-30T04:53:54.264Z,99.90
2019-04-30T04:55:00.374Z,99.90
2019-04-30T04:56:10.085Z,99.90
2019-04-30T04:57:18.300Z,99.90
2019-04-30T04:58:21.585Z,99.90
2019-04-30T04:59:26.309Z,99.90
2019-04-30T05:00:32.408Z,99.90
2019-04-30T05:01:38.647Z,99.90
2019-04-30T05:03:01.827Z,99.90
2019-04-30T05:04:06.218Z,99.90
2019-04-30T05:05:10.680Z,99.90
2019-04-30T05:06:14.986Z,99.90
2019-04-30T05:07:19.644Z,99.90
2019-04-30T05:08:24.123Z,99.90
2019-04-30T05:09:28.633Z,99.90
2019-04-30T05:10:33.197Z,99.90
2019-04-30T05:11:39.525Z,99.90
2019-04-30T05:12:43.539Z,99.90
2019-04-30T05:13:49.020Z,99.90
2019-04-30T05:14:53.620Z,99.90
2019-04-30T05:15:59.431Z,99.90
2019-04-30T05:17:03.909Z,99.90
2019-04-30T05:18:09.145Z,99.90
2019-04-30T05:19:13.757Z,99.90
2019-04-30T05:20:19.440Z,99.90
2019-04-30T05:21:24.083Z,99.90
2019-04-30T05:22:29.410Z,99.90
2019-04-30T05:23:33.903Z,99.90
2019-04-30T05:24:38.481Z,99.90
2019-04-30T05:25:44.335Z,99.90
2019-04-30T05:26:48.828Z,99.90
2019-04-30T05:27:53.322Z,99.90
2019-04-30T05:28:59.434Z,99.90
2019-04-30T05:30:04.743Z,99.90
2019-04-30T05:31:09.108Z,99.90
2019-04-30T05:32:13.430Z,99.90
2019-04-30T05:33:18.654Z,99.90
2019-04-30T05:34:23.123Z,99.90
2019-04-30T05:35:28.399Z,99.90
2019-04-30T05:36:33.475Z,99.90
2019-04-30T05:37:38.464Z,99.90
2019-04-30T05:38:43.023Z,99.90
2019-04-30T05:39:48.897Z,99.90
2019-04-30T05:40:53.513Z,99.90
2019-04-30T05:41:58.952Z,99.90
2019-04-30T05:43:03.479Z,99.90
2019-04-30T05:44:09.062Z,99.90
2019-04-30T05:45:13.640Z,99.90
2019-04-30T05:46:19.592Z,99.90
2019-04-30T05:47:24.240Z,99.90
2019-04-30T05:48:28.815Z,99.90
2019-04-30T05:49:33.240Z,99.90
2019-04-30T05:50:39.164Z,99.90
2019-04-30T05:51:53.643Z,99.90
2019-04-30T05:52:51.154Z,99.90
2019-04-30T05:53:55.479Z,99.90
2019-04-30T05:55:00.114Z,99.90
2019-04-30T05:56:04.884Z,99.90
2019-04-30T05:57:09.564Z,99.90
2019-04-30T05:58:13.994Z,99.90
2019-04-30T05:59:20.433Z,99.90
2019-04-30T06:00:24.767Z,99.90
2019-04-30T06:01:29.635Z,99.90
2019-04-30T06:02:34.572Z,99.90
2019-04-30T06:03:39.434Z,99.90
2019-04-30T06:04:43.732Z,99.90
2019-04-30T06:05:49.263Z,99.90
2019-04-30T06:06:53.898Z,99.90
2019-04-30T06:07:59.314Z,99.90
2019-04-30T06:09:18.741Z,99.90
2019-04-30T06:10:36.123Z,99.90
2019-04-30T06:11:55.361Z,99.90
2019-04-30T06:13:21.639Z,99.90
2019-04-30T06:14:45.882Z,99.90
2019-04-30T06:16:01.107Z,99.90
2019-04-30T06:17:16.856Z,99.90
2019-04-30T06:18:24.287Z,99.90
2019-04-30T06:19:29.235Z,99.90
2019-04-30T06:20:33.839Z,99.90
2019-04-30T06:21:39.090Z,99.90
2019-04-30T06:22:43.922Z,99.90
2019-04-30T06:23:49.276Z,99.90
2019-04-30T06:24:53.807Z,99.90
2019-04-30T06:26:06.740Z,99.90
2019-04-30T06:27:05.038Z,99.90
2019-04-30T06:28:11.067Z,99.90
2019-04-30T06:29:15.364Z,99.90
2019-04-30T06:30:19.875Z,99.90
2019-04-30T06:31:32.353Z,99.90
2019-04-30T06:32:30.918Z,99.90
2019-04-30T06:33:35.669Z,99.90
2019-04-30T06:34:41.933Z,99.90
2019-04-30T06:35:49.237Z,99.90
2019-04-30T06:36:56.927Z,99.90
2019-04-30T06:38:00.782Z,99.90
2019-04-30T06:39:06.545Z,99.90
2019-04-30T06:40:11.852Z,99.90
2019-04-30T06:41:16.236Z,99.90
2019-04-30T06:42:21.017Z,99.90
2019-04-30T06:43:26.124Z,99.90
2019-04-30T06:44:37.388Z,99.90
2019-04-30T06:45:38.805Z,99.90
2019-04-30T06:46:43.767Z,99.90
2019-04-30T06:47:49.016Z,99.90
2019-04-30T06:48:53.905Z,99.90
2019-04-30T06:49:58.761Z,99.90
2019-04-30T06:51:03.726Z,99.90
2019-04-30T06:52:19.559Z,99.90
2019-04-30T06:53:14.153Z,99.90
2019-04-30T06:54:19.161Z,99.90
2019-04-30T06:55:23.731Z,99.90
2019-04-30T06:56:28.912Z,99.90
2019-04-30T06:57:33.426Z,99.90
2019-04-30T06:58:39.188Z,99.90
2019-04-30T06:59:43.910Z,99.90
2019-04-30T07:00:49.667Z,99.90
2019-04-30T07:01:54.282Z,99.90
2019-04-30T07:02:59.087Z,99.90
2019-04-30T07:04:03.738Z,99.90
2019-04-30T07:05:10.206Z,99.90
2019-04-30T07:06:26.910Z,99.90
2019-04-30T07:07:23.178Z,99.90
2019-04-30T07:08:42.585Z,99.90
2019-04-30T07:09:58.407Z,99.70
2019-04-30T07:11:19.491Z,99.50
2019-04-30T07:12:43.103Z,99.30
2019-04-30T07:13:49.538Z,99.20
2019-04-30T07:14:55.070Z,98.80
2019-04-30T07:15:59.407Z,98.90
2019-04-30T07:17:03.776Z,98.70
2019-04-30T07:18:09.101Z,98.60
2019-04-30T07:19:13.643Z,98.20
2019-04-30T07:20:19.136Z,98.20
2019-04-30T07:21:23.755Z,98.00
2019-04-30T07:22:39.088Z,97.90
2019-04-30T07:23:34.212Z,97.90
2019-04-30T07:24:39.444Z,97.80
2019-04-30T07:25:43.850Z,97.80
2019-04-30T07:26:48.998Z,97.60
2019-04-30T07:27:53.428Z,97.30
2019-04-30T07:29:01.830Z,97.30
2019-04-30T07:30:04.196Z,97.10
2019-04-30T07:31:14.063Z,97.10
2019-04-30T07:32:14.752Z,96.90
2019-04-30T07:33:20.928Z,97.00
2019-04-30T07:34:25.343Z,97.10
2019-04-30T07:35:29.686Z,96.90
2019-04-30T07:36:45.719Z,96.80
2019-04-30T07:37:40.045Z,96.60
2019-04-30T07:38:51.660Z,96.50
2019-04-30T07:39:50.492Z,96.70
2019-04-30T07:40:54.822Z,96.90
2019-04-30T07:41:59.947Z,96.20
2019-04-30T07:43:04.619Z,96.20
2019-04-30T07:44:10.919Z,96.00
2019-04-30T07:45:15.147Z,95.90
2019-04-30T07:46:20.032Z,96.00
2019-04-30T07:47:24.614Z,95.90
2019-04-30T07:48:29.835Z,95.80
2019-04-30T07:49:46.946Z,95.80
2019-04-30T07:50:41.447Z,95.90
2019-04-30T07:51:46.879Z,95.90
2019-04-30T07:53:01.803Z,95.80
2019-04-30T07:53:59.033Z,95.80
2019-04-30T07:55:03.899Z,95.70
2019-04-30T07:56:24.001Z,95.50
2019-04-30T07:57:14.271Z,95.10
2019-04-30T07:58:20.462Z,95.10
2019-04-30T07:59:24.671Z,95.20
2019-04-30T08:00:31.178Z,95.30
2019-04-30T08:01:35.235Z,95.30
2019-04-30T08:02:45.597Z,95.50
2019-04-30T08:04:04.792Z,95.50
2019-04-30T08:05:32.015Z,95.50
2019-04-30T08:06:36.511Z,95.20
2019-04-30T08:07:40.932Z,95.20
2019-04-30T08:08:45.520Z,95.30
2019-04-30T08:09:50.127Z,95.30
2019-04-30T08:10:54.450Z,95.40
2019-04-30T08:11:58.981Z,95.50
2019-04-30T08:13:10.396Z,95.60
2019-04-30T08:14:09.941Z,95.70
2019-04-30T08:15:14.495Z,95.90
2019-04-30T08:16:18.829Z,95.70
2019-04-30T08:17:23.279Z,95.50
2019-04-30T08:18:29.453Z,95.50
2019-04-30T08:19:33.942Z,95.40
2019-04-30T08:20:39.287Z,95.20
2019-04-30T08:21:43.721Z,95.40
2019-04-30T08:22:49.403Z,95.30
2019-04-30T08:23:54.044Z,95.00
2019-04-30T08:24:58.752Z,94.60
2019-04-30T08:26:03.548Z,94.50
2019-04-30T08:27:09.745Z,94.60
2019-04-30T08:28:14.331Z,94.50
2019-04-30T08:29:19.487Z,94.30
2019-04-30T08:30:26.888Z,94.10
2019-04-30T08:31:30.228Z,93.80
2019-04-30T08:32:34.695Z,93.90
2019-04-30T08:33:40.221Z,93.90
2019-04-30T08:34:44.775Z,94.10
2019-04-30T08:35:49.875Z,94.10
2019-04-30T08:36:54.886Z,94.30
2019-04-30T08:37:59.379Z,94.20
2019-04-30T08:39:04.975Z,94.50
2019-04-30T08:40:09.868Z,94.50
2019-04-30T08:41:14.297Z,94.80
2019-04-30T08:42:29.072Z,94.20
2019-04-30T08:43:24.813Z,94.10
2019-04-30T08:44:29.622Z,94.00
2019-04-30T08:45:34.848Z,93.90
2019-04-30T08:46:39.437Z,93.20
2019-04-30T08:47:43.882Z,92.80
2019-04-30T08:48:53.061Z,92.10
2019-04-30T08:49:54.509Z,91.70
2019-04-30T08:50:59.550Z,91.30
2019-04-30T08:52:04.169Z,91.30
2019-04-30T08:53:10.960Z,91.40
2019-04-30T08:54:14.756Z,91.30
2019-04-30T08:55:22.039Z,91.50
2019-04-30T08:56:25.264Z,91.20
2019-04-30T08:57:29.831Z,91.00
2019-04-30T08:58:34.307Z,90.80
2019-04-30T08:59:39.493Z,90.40
2019-04-30T09:00:44.185Z,90.70
2019-04-30T09:01:48.805Z,90.70
2019-04-30T09:02:53.210Z,90.50
2019-04-30T09:03:59.455Z,90.00
2019-04-30T09:05:09.465Z,89.60
2019-04-30T09:06:19.541Z,88.70
2019-04-30T09:07:24.012Z,87.20
2019-04-30T09:08:29.457Z,86.50
2019-04-30T09:09:34.049Z,84.90
2019-04-30T09:10:39.290Z,84.10
2019-04-30T09:11:54.712Z,83.50
2019-04-30T09:12:52.032Z,83.80
2019-04-30T09:13:55.881Z,83.80
2019-04-30T09:15:00.220Z,84.30
2019-04-30T09:16:04.731Z,84.50
2019-04-30T09:17:09.319Z,83.80
2019-04-30T09:18:16.364Z,83.30
2019-04-30T09:19:21.324Z,83.00
2019-04-30T09:20:25.846Z,83.20
2019-04-30T09:21:30.181Z,81.50
2019-04-30T09:22:34.590Z,80.10
2019-04-30T09:23:47.314Z,79.00
2019-04-30T09:24:45.061Z,79.30
2019-04-30T09:25:49.787Z,79.00
2019-04-30T09:26:54.358Z,79.50
2019-04-30T09:27:58.951Z,79.90
2019-04-30T09:29:03.405Z,80.00
2019-04-30T09:30:10.373Z,80.40
2019-04-30T09:31:14.920Z,79.60
2019-04-30T09:32:19.500Z,80.50
2019-04-30T09:33:23.979Z,79.10
2019-04-30T09:34:29.077Z,78.90
2019-04-30T09:35:34.580Z,78.80
2019-04-30T09:36:39.191Z,78.30
2019-04-30T09:37:43.758Z,78.80
2019-04-30T09:38:48.557Z,79.50
2019-04-30T09:39:53.140Z,79.80
2019-04-30T09:40:59.443Z,79.30
2019-04-30T09:42:03.660Z,79.60
2019-04-30T09:43:08.670Z,79.90
2019-04-30T09:44:13.254Z,80.70
2019-04-30T09:45:18.689Z,80.00
2019-04-30T09:46:27.045Z,79.20
2019-04-30T09:47:29.640Z,80.20
2019-04-30T09:48:34.258Z,79.20
2019-04-30T09:49:39.144Z,80.70
2019-04-30T09:50:45.046Z,79.20
2019-04-30T09:51:50.342Z,78.20
2019-04-30T09:52:54.956Z,77.40
2019-04-30T09:54:02.861Z,78.40
2019-04-30T09:55:05.749Z,77.80
2019-04-30T09:56:10.148Z,78.10
2019-04-30T09:57:14.478Z,78.50
2019-04-30T09:58:21.071Z,78.40
2019-04-30T09:59:24.883Z,79.00
2019-04-30T10:00:29.632Z,78.10
2019-04-30T10:01:34.124Z,78.30
2019-04-30T10:02:38.975Z,77.70
2019-04-30T10:03:43.849Z,78.20
2019-04-30T10:04:49.043Z,78.00
2019-04-30T10:05:53.882Z,77.80
2019-04-30T10:06:59.581Z,77.50
2019-04-30T10:08:04.294Z,77.00
2019-04-30T10:09:11.155Z,77.40
2019-04-30T10:10:18.910Z,77.30
2019-04-30T10:11:45.501Z,76.70
2019-04-30T10:12:50.709Z,76.50
2019-04-30T10:13:55.128Z,76.60
2019-04-30T10:14:59.491Z,76.20
2019-04-30T10:16:10.596Z,76.30
2019-04-30T10:17:25.060Z,76.10
2019-04-30T10:18:29.464Z,76.60
2019-04-30T10:19:33.853Z,77.60
2019-04-30T10:20:42.959Z,77.90
2019-04-30T10:21:48.945Z,77.80
2019-04-30T10:22:53.475Z,75.80
2019-04-30T10:24:10.453Z,75.60
2019-04-30T10:25:05.844Z,75.70
2019-04-30T10:26:10.250Z,74.80
2019-04-30T10:27:14.764Z,75.70
2019-04-30T10:28:19.715Z,75.40
2019-04-30T10:29:25.804Z,75.60
2019-04-30T10:30:35.592Z,76.10
2019-04-30T10:31:39.971Z,76.10
2019-04-30T10:32:44.356Z,75.80
2019-04-30T10:33:48.769Z,76.00
2019-04-30T10:34:53.179Z,75.00
2019-04-30T10:35:59.387Z,73.90
2019-04-30T10:37:03.796Z,73.10
2019-04-30T10:38:09.852Z,73.00
2019-04-30T10:39:14.536Z,72.30
2019-04-30T10:40:20.322Z,72.80
2019-04-30T10:41:25.220Z,72.90
2019-04-30T10:42:29.696Z,72.80
2019-04-30T10:43:34.167Z,72.50
2019-04-30T10:44:38.666Z,72.60
2019-04-30T10:45:43.320Z,72.40
2019-04-30T10:46:47.854Z,70.80
2019-04-30T10:47:52.260Z,70.50
2019-04-30T10:48:56.724Z,70.30
2019-04-30T10:50:01.159Z,68.90
2019-04-30T10:51:05.573Z,68.20
2019-04-30T10:52:09.977Z,66.60
2019-04-30T10:53:14.518Z,66.00
2019-04-30T10:54:25.784Z,67.40
2019-04-30T10:55:25.065Z,68.80
2019-04-30T10:56:29.451Z,69.00
2019-04-30T10:57:33.886Z,67.90
2019-04-30T10:58:38.285Z,67.50
2019-04-30T10:59:42.633Z,67.50
2019-04-30T11:00:47.125Z,68.10
2019-04-30T11:01:51.679Z,66.90
2019-04-30T11:02:56.064Z,66.40
2019-04-30T11:04:00.545Z,63.60
2019-04-30T11:05:05.412Z,63.70
2019-04-30T11:06:09.802Z,64.50
2019-04-30T11:07:14.225Z,64.50
2019-04-30T11:08:18.704Z,63.90
2019-04-30T11:09:24.136Z,63.90
2019-04-30T11:10:29.395Z,63.30
2019-04-30T11:11:33.876Z,63.80
2019-04-30T11:12:39.156Z,62.50
2019-04-30T11:13:43.571Z,61.80
2019-04-30T11:14:47.935Z,62.90
2019-04-30T11:15:52.319Z,61.70
2019-04-30T11:16:56.795Z,60.90
2019-04-30T11:18:01.564Z,60.10
2019-04-30T11:19:06.308Z,57.70
2019-04-30T11:20:11.461Z,56.90
2019-04-30T11:21:15.972Z,56.30
2019-04-30T11:22:20.668Z,54.40
2019-04-30T11:23:25.244Z,52.00
2019-04-30T11:24:36.448Z,50.80
2019-04-30T11:25:36.479Z,49.80
2019-04-30T11:26:42.080Z,48.50
2019-04-30T11:27:48.151Z,46.60
2019-04-30T11:28:53.193Z,45.50
2019-04-30T11:30:03.235Z,44.60
2019-04-30T11:31:22.056Z,43.70
2019-04-30T11:32:26.903Z,42.50
2019-04-30T11:33:31.746Z,41.00
2019-04-30T11:34:36.300Z,39.60
2019-04-30T11:35:40.645Z,38.80
2019-04-30T11:36:45.114Z,38.20
2019-04-30T11:37:49.739Z,37.70
2019-04-30T11:38:54.212Z,37.40
2019-04-30T11:39:58.546Z,37.80
2019-04-30T11:41:02.939Z,36.10
2019-04-30T11:42:07.679Z,35.60
2019-04-30T11:43:12.118Z,34.50
2019-04-30T11:44:28.463Z,33.80
2019-04-30T11:45:23.018Z,34.50
2019-04-30T11:46:50.363Z,33.70
2019-04-30T11:47:54.728Z,33.10
2019-04-30T11:48:59.215Z,32.20
2019-04-30T11:50:05.329Z,32.10
2019-04-30T11:51:09.732Z,32.30
2019-04-30T11:52:14.338Z,32.20
2019-04-30T11:53:25.409Z,31.80
2019-04-30T11:54:24.800Z,31.90
2019-04-30T11:55:29.210Z,31.30
2019-04-30T11:56:33.642Z,30.00
2019-04-30T11:57:39.700Z,30.30
2019-04-30T11:58:44.472Z,30.30
2019-04-30T11:59:48.969Z,30.00
2019-04-30T12:00:53.440Z,29.60
2019-04-30T12:01:59.424Z,29.80
2019-04-30T12:03:03.839Z,29.90
2019-04-30T12:04:09.317Z,29.40
2019-04-30T12:05:20.345Z,29.20
2019-04-30T12:06:23.056Z,29.20
2019-04-30T12:07:43.179Z,28.30
2019-04-30T12:09:09.417Z,28.30
2019-04-30T12:10:22.016Z,27.70
2019-04-30T12:11:31.724Z,27.60
2019-04-30T12:12:36.056Z,27.50
2019-04-30T12:13:40.368Z,27.30
2019-04-30T12:14:44.724Z,26.80
2019-04-30T12:15:50.162Z,26.40
2019-04-30T12:16:54.639Z,26.50
2019-04-30T12:17:59.030Z,26.50
2019-04-30T12:19:03.596Z,26.40
2019-04-30T12:20:08.752Z,26.30
2019-04-30T12:21:13.122Z,25.80
2019-04-30T12:22:19.993Z,25.90
2019-04-30T12:23:23.660Z,26.10
2019-04-30T12:24:30.268Z,26.30
2019-04-30T12:25:34.092Z,25.80
2019-04-30T12:26:39.005Z,25.40
2019-04-30T12:27:43.539Z,25.00
2019-04-30T12:28:47.923Z,24.80
2019-04-30T12:29:52.245Z,24.50
2019-04-30T12:30:58.740Z,24.60
2019-04-30T12:32:02.680Z,24.50
2019-04-30T12:33:08.998Z,24.30
2019-04-30T12:34:13.256Z,24.10
2019-04-30T12:35:18.173Z,24.30
2019-04-30T12:36:22.539Z,24.60
2019-04-30T12:37:26.887Z,25.00
2019-04-30T12:38:31.195Z,25.10
2019-04-30T12:39:35.520Z,24.90
2019-04-30T12:40:39.961Z,25.10
2019-04-30T12:41:44.477Z,25.30
2019-04-30T12:42:48.801Z,25.20
2019-04-30T12:43:53.339Z,25.30
2019-04-30T12:44:59.426Z,25.10
2019-04-30T12:46:05.543Z,25.50
2019-04-30T12:47:10.075Z,24.80
2019-04-30T12:48:20.339Z,25.00
2019-04-30T12:49:24.735Z,24.60
2019-04-30T12:50:54.143Z,24.80
2019-04-30T12:52:19.528Z,24.90
2019-04-30T12:53:29.050Z,25.40
2019-04-30T12:54:44.539Z,25.50
2019-04-30T12:56:00.267Z,25.10
2019-04-30T12:57:23.391Z,24.70
2019-04-30T12:58:27.694Z,25.10
2019-04-30T12:59:32.042Z,25.20
2019-04-30T13:00:36.499Z,25.80
2019-04-30T13:01:41.002Z,25.10
2019-04-30T13:02:45.383Z,25.20
2019-04-30T13:03:58.110Z,25.50
2019-04-30T13:04:55.747Z,25.90
2019-04-30T13:06:01.628Z,25.50
2019-04-30T13:07:07.083Z,26.00
2019-04-30T13:08:12.877Z,26.00
2019-04-30T13:09:19.847Z,25.70
2019-04-30T13:10:24.284Z,25.70
2019-04-30T13:11:30.827Z,25.70
2019-04-30T13:12:35.689Z,25.20
2019-04-30T13:13:41.407Z,25.30
2019-04-30T13:14:53.946Z,25.00
2019-04-30T13:15:52.512Z,25.00
2019-04-30T13:16:58.917Z,24.90
2019-04-30T13:18:02.972Z,25.20
2019-04-30T13:19:09.173Z,25.80
2019-04-30T13:20:21.038Z,26.30
2019-04-30T13:21:20.337Z,25.90
2019-04-30T13:22:24.831Z,26.90
2019-04-30T13:23:29.780Z,26.50
2019-04-30T13:24:34.217Z,26.30
2019-04-30T13:25:49.011Z,26.10
2019-04-30T13:26:44.820Z,26.10
2019-04-30T13:27:53.015Z,25.70
2019-04-30T13:29:02.000Z,25.40
2019-04-30T13:30:13.694Z,25.60
2019-04-30T13:31:19.346Z,25.50
2019-04-30T13:32:30.178Z,25.30
2019-04-30T13:33:39.307Z,25.20
2019-04-30T13:34:48.591Z,25.40
2019-04-30T13:35:52.993Z,25.40
2019-04-30T13:36:59.287Z,26.00
2019-04-30T13:38:16.445Z,25.80
2019-04-30T13:39:27.097Z,25.70
2019-04-30T13:40:39.397Z,26.20
2019-04-30T13:41:59.152Z,26.40
2019-04-30T13:43:03.736Z,26.30
2019-04-30T13:44:16.615Z,25.70
2019-04-30T13:45:20.911Z,25.40
2019-04-30T13:46:25.536Z,25.60
2019-04-30T13:47:29.986Z,25.80
2019-04-30T13:48:34.398Z,25.80
2019-04-30T13:49:39.505Z,26.20
2019-04-30T13:50:43.987Z,26.60
2019-04-30T13:51:48.333Z,26.90
2019-04-30T13:52:52.728Z,27.40
2019-04-30T13:53:57.084Z,27.20
2019-04-30T13:55:01.541Z,27.20
2019-04-30T13:56:06.007Z,27.30
2019-04-30T13:57:10.353Z,27.50
2019-04-30T13:58:14.683Z,27.30
2019-04-30T13:59:19.183Z,27.30
2019-04-30T14:00:26.208Z,27.40
2019-04-30T14:01:30.605Z,27.60
2019-04-30T14:02:38.564Z,28.00
2019-04-30T14:03:49.838Z,27.80
2019-04-30T14:05:13.561Z,27.90
2019-04-30T14:06:19.801Z,27.70
2019-04-30T14:07:40.036Z,28.20
2019-04-30T14:08:48.723Z,28.30
2019-04-30T14:09:53.189Z,28.20
2019-04-30T14:10:59.197Z,28.10
2019-04-30T14:12:03.753Z,28.50
2019-04-30T14:13:08.935Z,28.40
2019-04-30T14:14:13.306Z,29.10
2019-04-30T14:15:19.233Z,29.10